TimeEST,TemperatureF,Dew PointF,Humidity,Sea Level PressureIn,VisibilityMPH,Wind Direction,Wind SpeedMPH,Gust SpeedMPH,PrecipitationIn,Events,Conditions,WindDirDegrees,DateUTC
12:53 AM,46.9,45.0,93,29.88,7.0,Variable,4.6,-,0.04,Rain,Light Rain,0,2014-02-05 05:53:00
1:53 AM,46.9,46.0,97,29.85,10.0,Variable,4.6,-,0.01,Rain,Light Rain,0,2014-02-05 06:53:00
2:29 AM,46.9,46.0,97,29.81,4.0,Variable,3.5,-,0.02,Rain,Light Rain,0,2014-02-05 07:29:00
2:53 AM,46.9,46.0,97,29.81,3.0,WSW,3.5,-,0.05,Rain,Rain,240,2014-02-05 07:53:00
3:08 AM,46.9,46.0,97,29.81,2.5,Variable,5.8,-,0.03,Rain,Rain,0,2014-02-05 08:08:00
3:16 AM,46.9,46.0,97,29.82,5.0,West,8.1,-,0.04,Rain,Light Rain,260,2014-02-05 08:16:00
3:31 AM,48.0,46.0,93,29.82,2.0,WSW,8.1,16.1,0.09,Rain,Rain,250,2014-02-05 08:31:00
3:42 AM,48.0,46.0,93,29.81,5.0,Variable,5.8,-,0.12,Rain,Light Rain,0,2014-02-05 08:42:00
3:53 AM,48.0,46.0,93,29.82,9.0,Variable,4.6,-,0.13,Rain,Light Rain,0,2014-02-05 08:53:00
4:53 AM,48.0,46.0,93,29.82,10.0,WSW,8.1,-,0.00,,Overcast,240,2014-02-05 09:53:00
5:53 AM,48.0,46.0,93,29.84,7.0,WSW,8.1,-,N/A,,Overcast,240,2014-02-05 10:53:00
6:53 AM,48.0,46.0,93,29.88,6.0,Variable,5.8,-,0.01,Rain,Light Rain,0,2014-02-05 11:53:00
7:29 AM,46.9,45.0,93,29.88,10.0,Variable,5.8,-,0.00,,Overcast,0,2014-02-05 12:29:00
7:53 AM,46.9,43.0,86,29.91,10.0,WSW,10.4,19.6,0.00,,Overcast,250,2014-02-05 12:53:00
8:08 AM,46.9,43.0,86,29.91,10.0,Variable,6.9,23.0,N/A,,Scattered Clouds,0,2014-02-05 13:08:00
8:30 AM,46.9,39.9,77,29.93,10.0,WSW,8.1,23.0,N/A,,Mostly Cloudy,240,2014-02-05 13:30:00
8:39 AM,46.9,39.9,77,29.94,10.0,WSW,9.2,18.4,N/A,,Overcast,250,2014-02-05 13:39:00
8:53 AM,46.9,39.0,74,29.97,10.0,WSW,16.1,29.9,N/A,,Mostly Cloudy,250,2014-02-05 13:53:00
9:53 AM,45.0,37.9,76,30.01,10.0,West,10.4,17.3,N/A,,Overcast,280,2014-02-05 14:53:00
10:53 AM,42.1,34.0,73,30.06,10.0,West,6.9,20.7,N/A,,Overcast,280,2014-02-05 15:53:00
11:09 AM,42.1,34.0,73,30.04,10.0,WSW,9.2,26.5,N/A,,Overcast,250,2014-02-05 16:09:00
11:53 AM,42.1,33.1,70,30.07,10.0,West,9.2,19.6,N/A,,Overcast,270,2014-02-05 16:53:00
12:53 PM,41.0,33.1,73,30.08,10.0,Variable,6.9,20.7,0.00,,Overcast,0,2014-02-05 17:53:00
1:32 PM,39.9,30.9,70,30.06,10.0,Variable,6.9,19.6,N/A,,Overcast,0,2014-02-05 18:32:00
1:53 PM,39.9,30.0,68,30.09,10.0,West,8.1,-,N/A,,Overcast,260,2014-02-05 18:53:00
2:53 PM,37.0,27.0,67,30.13,10.0,West,12.7,20.7,N/A,,Overcast,280,2014-02-05 19:53:00
3:53 PM,36.0,26.1,67,30.17,10.0,West,9.2,-,N/A,,Overcast,270,2014-02-05 20:53:00
4:53 PM,36.0,26.1,67,30.19,10.0,West,6.9,-,N/A,,Overcast,260,2014-02-05 21:53:00
5:53 PM,35.1,27.0,72,30.22,10.0,Variable,4.6,-,N/A,,Overcast,0,2014-02-05 22:53:00
6:53 PM,32.0,25.0,75,30.27,10.0,West,6.9,-,N/A,,Overcast,260,2014-02-05 23:53:00
7:53 PM,30.9,21.9,69,30.30,10.0,Variable,5.8,-,N/A,,Overcast,0,2014-02-06 00:53:00
8:53 PM,30.0,19.0,64,30.31,10.0,NNW,9.2,-,N/A,,Overcast,340,2014-02-06 01:53:00
9:41 PM,28.9,19.0,67,30.30,10.0,NNW,5.8,-,N/A,,Overcast,340,2014-02-06 02:41:00
9:53 PM,28.9,19.0,67,30.35,10.0,NNW,8.1,-,N/A,,Overcast,340,2014-02-06 02:53:00
10:05 PM,28.9,19.0,67,30.31,10.0,NNW,6.9,-,N/A,,Overcast,340,2014-02-06 03:05:00
10:53 PM,28.0,18.0,66,30.37,10.0,North,10.4,18.4,N/A,,Overcast,360,2014-02-06 03:53:00
11:53 PM,28.0,18.0,66,30.38,10.0,North,8.1,-,N/A,,Overcast,360,2014-02-06 04:53:00